Liscombe, United Kingdom
Current Conditions -  °F | °C
As of 2:50 PM on Sunday 23 Nov 2014 (Local Time) from EGDX Reporting Station
Few Clouds Few Clouds  
Wind Chill: 10°   Ceiling: Unl
Heat Index: 10°   Visibility: 6mi
Dew Point:   Wind: 8mph
Humidity: 66%   Direction: 320°NW
Pressure: 30.06"   Gusts: NA
Location:  51.08°N, 3.6°W
Report Text: EGDX 231450Z AUTO 32007KT 9999 FEW028/// 10/04 Q1018
Loading
Personal Weather Stations






























Interactive Weather Map New forecast layout! Learn more

10-Day Weather Forecast

Advertisements
Track Severe Weather on mobile